Terminal Aerodrome Forecast
Issued by NWS

Home | Current Version | Previous Version | Graphics & Text | Print | Product List | Glossary On
Versions: 1 2 3 4 5 6 7 8 9 10 11 12 13 14 15 16
099
FTUS43 KGRB 171724 AAA
TAFCWA
TAF AMD
KCWA 171724Z 1717/1818 10009G15KT P6SM BKN100
     FM180000 10008KT P6SM FEW100 BKN250
     FM180300 10007KT P6SM BKN250 WS012/12035KT
     FM180900 10004KT P6SM BKN250 WS012/14030KT
     FM181400 12008G14KT P6SM BKN250=

USA.gov is the U.S. government's official web portal to all federal, state and local government web resources and services.